createdAt,value
2019-04-10T00:00:10.839Z,37.00
2019-04-10T00:02:39.758Z,36.58
2019-04-10T00:05:09.661Z,32.67
2019-04-10T00:07:38.234Z,37.05
2019-04-10T00:10:07.742Z,32.75
2019-04-10T00:12:36.357Z,37.42
2019-04-10T00:15:05.547Z,29.27
2019-04-10T00:17:34.084Z,34.00
2019-04-10T00:20:04.333Z,33.05
2019-04-10T00:22:33.978Z,30.70
2019-04-10T00:25:02.636Z,31.33
2019-04-10T00:27:31.210Z,33.60
2019-04-10T00:30:00.575Z,30.92
2019-04-10T00:32:29.964Z,33.73
2019-04-10T00:34:58.680Z,28.50
2019-04-10T00:37:29.965Z,34.15
2019-04-10T00:39:57.309Z,30.75
2019-04-10T00:42:26.111Z,34.35
2019-04-10T00:44:55.037Z,31.17
2019-04-10T00:47:23.576Z,30.97
2019-04-10T00:49:52.149Z,34.60
2019-04-10T00:52:20.611Z,32.00
2019-04-10T00:54:49.063Z,37.20
2019-04-10T00:57:17.566Z,32.93
2019-04-10T00:59:46.024Z,32.88
2019-04-10T01:02:14.487Z,33.10
2019-04-10T01:04:42.984Z,34.80
2019-04-10T01:07:11.451Z,33.30
2019-04-10T01:09:39.992Z,33.10
2019-04-10T01:12:08.562Z,30.70
2019-04-10T01:14:37.976Z,33.20
2019-04-10T01:17:06.696Z,31.62
2019-04-10T01:19:36.279Z,33.83
2019-04-10T01:22:05.234Z,30.60
2019-04-10T01:24:33.696Z,33.17
2019-04-10T01:27:03.370Z,34.85
2019-04-10T01:29:31.940Z,34.67
2019-04-10T01:32:01.387Z,30.30
2019-04-10T01:34:30.180Z,33.78
2019-04-10T01:36:58.635Z,33.55
2019-04-10T01:39:28.733Z,32.58
2019-04-10T01:41:57.230Z,30.57
2019-04-10T01:44:26.811Z,31.55
2019-04-10T01:46:55.437Z,31.37
2019-04-10T01:49:24.047Z,32.63
2019-04-10T01:51:52.508Z,32.93
2019-04-10T01:54:20.987Z,34.58
2019-04-10T01:56:50.159Z,36.88
2019-04-10T01:59:21.435Z,33.02
2019-04-10T02:02:00.986Z,35.78
2019-04-10T02:06:57.954Z,34.48
2019-04-10T02:09:27.626Z,35.23
2019-04-10T02:14:24.997Z,36.60
2019-04-10T02:16:53.568Z,35.73
2019-04-10T02:19:22.104Z,33.98
2019-04-10T02:21:50.560Z,36.45
2019-04-10T02:24:19.312Z,32.70
2019-04-10T02:26:47.776Z,34.83
2019-04-10T02:29:16.236Z,32.55
2019-04-10T02:31:46.208Z,30.27
2019-04-10T02:34:14.966Z,33.98
2019-04-10T02:36:44.522Z,28.30
2019-04-10T02:41:43.976Z,31.02
2019-04-10T02:44:12.850Z,31.35
2019-04-10T02:46:41.798Z,32.30
2019-04-10T02:49:12.113Z,33.40
2019-04-10T02:51:41.287Z,33.98
2019-04-10T02:54:11.231Z,34.92
2019-04-10T02:56:40.995Z,31.68
2019-04-10T02:59:11.077Z,32.28
2019-04-10T03:01:40.024Z,33.00
2019-04-10T03:04:09.790Z,30.83
2019-04-10T03:06:39.567Z,32.58
2019-04-10T03:11:39.158Z,30.55
2019-04-10T03:14:08.148Z,36.65
2019-04-10T03:16:37.600Z,29.18
2019-04-10T03:19:07.394Z,30.48
2019-04-10T03:21:36.101Z,27.87
2019-04-10T03:24:04.728Z,31.85
2019-04-10T03:26:33.991Z,24.70
2019-04-10T03:29:03.252Z,29.65
2019-04-10T03:31:34.172Z,30.32
2019-04-10T03:34:06.090Z,31.97
2019-04-10T03:36:38.648Z,31.95
2019-04-10T03:39:09.329Z,28.83
2019-04-10T03:41:40.018Z,29.02
2019-04-10T03:44:08.766Z,30.27
2019-04-10T03:46:39.949Z,32.75
2019-04-10T03:49:07.526Z,32.67
2019-04-10T03:51:36.633Z,28.43
2019-04-10T03:54:05.246Z,32.70
2019-04-10T03:56:34.025Z,29.02
2019-04-10T03:59:02.657Z,32.15
2019-04-10T04:01:32.021Z,31.68
2019-04-10T04:04:01.467Z,28.47
2019-04-10T04:06:30.119Z,30.00
2019-04-10T04:09:06.693Z,33.28
2019-04-10T04:11:29.398Z,28.35
2019-04-10T04:13:57.996Z,33.20
2019-04-10T04:16:26.881Z,32.53
2019-04-10T04:18:55.584Z,31.48
2019-04-10T04:21:25.841Z,29.63
2019-04-10T04:23:55.232Z,30.48
2019-04-10T04:26:23.812Z,30.10
2019-04-10T04:28:52.547Z,33.58
2019-04-10T04:31:22.897Z,32.10
2019-04-10T04:33:51.519Z,31.00
2019-04-10T04:36:20.432Z,32.58
2019-04-10T04:38:49.228Z,32.15
2019-04-10T04:41:17.744Z,33.02
2019-04-10T04:43:47.604Z,30.12
2019-04-10T04:46:16.499Z,30.35
2019-04-10T04:48:45.368Z,31.07
2019-04-10T04:51:14.004Z,31.42
2019-04-10T04:53:42.640Z,32.53
2019-04-10T04:56:11.491Z,34.23
2019-04-10T04:58:40.123Z,30.48
2019-04-10T05:01:08.647Z,28.50
2019-04-10T05:03:37.552Z,29.42
2019-04-10T05:06:06.191Z,28.87
2019-04-10T05:08:34.725Z,27.98
2019-04-10T05:11:04.224Z,32.58
2019-04-10T05:16:02.554Z,26.62
2019-04-10T05:18:31.737Z,30.00
2019-04-10T05:21:00.942Z,32.15
2019-04-10T05:23:29.473Z,28.00
2019-04-10T05:25:59.031Z,26.33
2019-04-10T05:28:28.500Z,27.67
2019-04-10T05:30:58.936Z,28.57
2019-04-10T05:35:55.387Z,27.00
2019-04-10T05:38:24.898Z,25.08
2019-04-10T05:40:53.588Z,25.40
2019-04-10T05:43:22.117Z,29.00
2019-04-10T05:45:50.709Z,27.62
2019-04-10T05:48:21.898Z,26.20
2019-04-10T05:50:57.921Z,27.70
2019-04-10T05:53:20.400Z,26.80
2019-04-10T05:55:49.352Z,26.15
2019-04-10T05:58:18.005Z,23.80
2019-04-10T06:00:47.133Z,23.80
2019-04-10T06:03:16.512Z,23.75
2019-04-10T06:05:45.069Z,27.10
2019-04-10T06:08:14.001Z,23.75
2019-04-10T06:10:43.575Z,23.83
2019-04-10T06:15:41.212Z,20.75
2019-04-10T06:18:11.091Z,19.62
2019-04-10T06:20:41.669Z,19.07
2019-04-10T06:23:11.460Z,18.90
2019-04-10T06:25:41.928Z,20.90
2019-04-10T06:28:10.302Z,23.38
2019-04-10T06:30:39.799Z,24.07
2019-04-10T06:35:38.356Z,23.05
2019-04-10T06:38:06.963Z,19.75
2019-04-10T06:40:35.607Z,21.12
2019-04-10T06:43:04.447Z,20.02
2019-04-10T06:45:35.732Z,21.62
2019-04-10T06:48:04.392Z,20.57
2019-04-10T06:50:32.945Z,23.70
2019-04-10T06:53:01.529Z,21.60
2019-04-10T06:55:30.279Z,22.42
2019-04-10T06:57:59.390Z,23.23
2019-04-10T07:00:28.633Z,22.52
2019-04-10T07:02:57.281Z,24.20
2019-04-10T07:05:37.103Z,20.23
2019-04-10T07:08:05.729Z,17.98
2019-04-10T07:10:32.260Z,18.37
2019-04-10T07:12:57.121Z,23.75
2019-04-10T07:15:25.681Z,21.27
2019-04-10T07:17:55.370Z,22.70
2019-04-10T07:22:53.341Z,20.57
2019-04-10T07:25:21.935Z,20.72
2019-04-10T07:27:50.497Z,21.70
2019-04-10T07:30:19.539Z,19.60
2019-04-10T07:32:49.178Z,20.72
2019-04-10T07:35:21.464Z,20.57
2019-04-10T07:37:52.598Z,25.05
2019-04-10T07:40:18.694Z,18.35
2019-04-10T07:42:48.278Z,19.23
2019-04-10T07:45:17.468Z,22.17
2019-04-10T07:47:46.235Z,19.77
2019-04-10T07:50:16.382Z,22.05
2019-04-10T07:52:45.909Z,24.00
2019-04-10T07:55:14.962Z,18.67
2019-04-10T07:57:47.154Z,21.60
2019-04-10T08:00:16.705Z,21.23
2019-04-10T08:02:45.213Z,22.52
2019-04-10T08:05:14.455Z,20.05
2019-04-10T08:07:43.133Z,19.82
2019-04-10T08:10:12.083Z,19.98
2019-04-10T08:12:47.680Z,19.80
2019-04-10T08:15:11.295Z,19.25
2019-04-10T08:17:40.974Z,19.73
2019-04-10T08:22:44.873Z,20.45
2019-04-10T08:25:14.272Z,17.50
2019-04-10T08:27:43.795Z,19.32
2019-04-10T08:30:12.901Z,22.07
2019-04-10T08:32:53.397Z,18.23
2019-04-10T08:35:11.793Z,19.42
2019-04-10T08:37:41.106Z,21.40
2019-04-10T08:40:10.029Z,20.02
2019-04-10T08:42:40.162Z,19.85
2019-04-10T08:45:09.326Z,19.77
2019-04-10T08:47:37.908Z,21.80
2019-04-10T08:50:07.921Z,20.62
2019-04-10T08:52:37.051Z,19.77
2019-04-10T08:55:06.275Z,21.75
2019-04-10T08:57:36.113Z,18.85
2019-04-10T09:00:10.188Z,20.15
2019-04-10T09:02:39.037Z,19.02
2019-04-10T09:05:09.180Z,28.10
2019-04-10T09:07:38.218Z,20.05
2019-04-10T09:10:08.177Z,18.48
2019-04-10T09:12:36.858Z,21.90
2019-04-10T09:15:07.663Z,17.93
2019-04-10T09:17:37.523Z,19.87
2019-04-10T09:20:07.365Z,18.73
2019-04-10T09:22:56.300Z,21.82
2019-04-10T09:25:07.638Z,21.45
2019-04-10T09:27:36.273Z,24.35
2019-04-10T09:30:06.825Z,17.27
2019-04-10T09:32:35.435Z,20.52
2019-04-10T09:35:06.517Z,23.25
2019-04-10T09:37:35.269Z,16.65
2019-04-10T09:40:07.813Z,17.70
2019-04-10T09:42:36.515Z,19.95
2019-04-10T09:45:06.034Z,18.45
2019-04-10T09:50:05.682Z,17.52
2019-04-10T09:52:35.493Z,20.40
2019-04-10T09:55:05.695Z,19.87
2019-04-10T09:57:34.625Z,16.52
2019-04-10T10:00:05.314Z,16.60
2019-04-10T10:02:33.899Z,19.50
2019-04-10T10:05:02.379Z,19.92
2019-04-10T10:07:30.973Z,18.57
2019-04-10T10:10:00.879Z,17.95
2019-04-10T10:12:29.637Z,18.20
2019-04-10T10:14:58.210Z,18.02
2019-04-10T10:17:26.679Z,16.00
2019-04-10T10:19:55.410Z,17.75
2019-04-10T10:22:25.185Z,16.37
2019-04-10T10:24:55.075Z,17.67
2019-04-10T10:27:24.699Z,20.40
2019-04-10T10:29:54.897Z,20.88
2019-04-10T10:32:24.626Z,19.57
2019-04-10T10:34:54.489Z,20.80
2019-04-10T10:37:24.113Z,18.87
2019-04-10T10:42:21.743Z,19.00
2019-04-10T10:44:50.240Z,23.22
2019-04-10T10:47:18.705Z,24.43
2019-04-10T10:49:47.280Z,23.45
2019-04-10T10:52:15.852Z,24.92
2019-04-10T10:54:45.201Z,24.25
2019-04-10T10:57:13.875Z,19.27
2019-04-10T10:59:42.530Z,22.10
2019-04-10T11:02:11.253Z,25.23
2019-04-10T11:04:39.902Z,23.73
2019-04-10T11:07:08.686Z,24.33
2019-04-10T11:09:38.161Z,26.52
2019-04-10T11:12:06.867Z,26.42
2019-04-10T11:14:35.528Z,23.13
2019-04-10T11:17:05.303Z,23.15
2019-04-10T11:19:35.387Z,23.60
2019-04-10T11:22:07.395Z,24.65
2019-04-10T11:24:38.140Z,21.20
2019-04-10T11:27:07.956Z,25.68
2019-04-10T11:29:37.651Z,23.62
2019-04-10T11:32:06.774Z,19.77
2019-04-10T11:34:35.678Z,19.82
2019-04-10T11:37:21.550Z,17.70
2019-04-10T11:39:37.254Z,22.70
2019-04-10T11:42:06.563Z,25.62
2019-04-10T11:44:36.782Z,21.12
2019-04-10T11:47:08.735Z,20.92
2019-04-10T11:49:39.237Z,21.37
2019-04-10T11:52:06.561Z,21.07
2019-04-10T11:54:40.364Z,23.57
2019-04-10T11:57:06.833Z,21.55
2019-04-10T11:59:36.655Z,21.60
2019-04-10T12:02:08.194Z,24.10
2019-04-10T12:04:48.122Z,35.45
2019-04-10T12:07:09.131Z,19.02
2019-04-10T12:12:07.025Z,22.13
2019-04-10T12:14:35.683Z,20.60
2019-04-10T12:17:05.437Z,19.50
2019-04-10T12:19:33.963Z,17.70
2019-04-10T12:22:03.175Z,22.37
2019-04-10T12:24:32.232Z,21.27
2019-04-10T12:27:00.920Z,18.85
2019-04-10T12:29:29.497Z,19.65
2019-04-10T12:31:58.567Z,17.87
2019-04-10T12:34:27.172Z,19.02
2019-04-10T12:36:55.754Z,19.20
2019-04-10T12:39:25.269Z,22.27
2019-04-10T12:41:53.985Z,21.00
2019-04-10T12:44:23.358Z,19.90
2019-04-10T12:46:53.260Z,23.40
2019-04-10T12:49:21.898Z,17.25
2019-04-10T12:51:50.469Z,21.37
2019-04-10T12:54:19.568Z,20.60
2019-04-10T12:56:48.575Z,21.23
2019-04-10T12:59:17.386Z,20.68
2019-04-10T13:01:47.025Z,23.70
2019-04-10T13:06:44.520Z,19.05
2019-04-10T13:09:14.435Z,20.08
2019-04-10T13:11:43.134Z,18.95
2019-04-10T13:14:12.583Z,19.12
2019-04-10T13:19:11.166Z,21.20
2019-04-10T13:21:40.041Z,22.07
2019-04-10T13:24:09.098Z,19.37
2019-04-10T13:26:37.879Z,19.65
2019-04-10T13:29:07.699Z,19.62
2019-04-10T13:31:37.275Z,21.52
2019-04-10T13:37:02.090Z,21.68
2019-04-10T13:39:30.836Z,20.97
2019-04-10T13:41:59.536Z,22.85
2019-04-10T13:44:28.774Z,20.97
2019-04-10T13:46:57.457Z,22.52
2019-04-10T13:49:26.289Z,23.00
2019-04-10T13:51:54.757Z,19.13
2019-04-10T13:54:23.221Z,20.30
2019-04-10T13:56:52.838Z,24.43
2019-04-10T13:59:22.487Z,19.62
2019-04-10T14:04:19.171Z,23.70
2019-04-10T14:06:49.276Z,23.83
2019-04-10T14:09:30.126Z,19.32
2019-04-10T14:11:49.564Z,24.65
2019-04-10T14:14:18.314Z,22.93
2019-04-10T14:16:46.908Z,24.50
2019-04-10T14:19:15.503Z,21.07
2019-04-10T14:21:45.027Z,20.43
2019-04-10T14:26:48.836Z,21.48
2019-04-10T14:29:14.547Z,21.95
2019-04-10T14:34:14.427Z,20.00
2019-04-10T14:36:44.260Z,19.60
2019-04-10T14:39:18.477Z,21.77
2019-04-10T14:41:44.739Z,19.67
2019-04-10T14:44:14.512Z,23.60
2019-04-10T14:46:44.269Z,22.00
2019-04-10T14:49:13.186Z,19.70
2019-04-10T14:51:41.957Z,26.27
2019-04-10T14:54:11.313Z,26.17
2019-04-10T14:56:40.087Z,21.45
2019-04-10T14:59:09.514Z,22.30
2019-04-10T15:01:41.976Z,19.57
2019-04-10T15:05:05.815Z,19.12
2019-04-10T15:07:35.194Z,21.23
2019-04-10T15:10:05.576Z,24.15
2019-04-10T15:12:34.088Z,23.25
2019-04-10T15:15:03.846Z,21.15
2019-04-10T15:17:32.893Z,24.90
2019-04-10T15:20:01.740Z,21.10
2019-04-10T15:22:30.340Z,22.07
2019-04-10T15:24:59.321Z,28.07
2019-04-10T15:27:29.156Z,23.12
2019-04-10T15:29:59.213Z,29.40
2019-04-10T15:32:27.692Z,25.35
2019-04-10T15:34:56.209Z,25.05
2019-04-10T15:37:24.961Z,23.20
2019-04-10T15:39:53.920Z,27.22
2019-04-10T15:42:23.770Z,23.87
2019-04-10T15:44:52.525Z,21.07
2019-04-10T15:47:23.113Z,28.05
2019-04-10T15:49:51.612Z,26.95
2019-04-10T15:52:20.631Z,28.17
2019-04-10T15:54:50.304Z,25.33
2019-04-10T15:57:19.523Z,28.12
2019-04-10T15:59:48.363Z,26.20
2019-04-10T16:02:17.152Z,31.02
2019-04-10T16:04:45.739Z,26.57
2019-04-10T16:07:16.106Z,22.87
2019-04-10T16:09:51.679Z,21.30
2019-04-10T16:12:18.527Z,20.37
2019-04-10T16:14:47.170Z,26.35
2019-04-10T16:17:34.993Z,22.37
2019-04-10T16:20:09.288Z,23.45
2019-04-10T16:22:42.676Z,23.90
2019-04-10T16:25:14.452Z,24.10
2019-04-10T16:27:43.343Z,23.30
2019-04-10T16:30:14.442Z,26.82
2019-04-10T16:32:44.301Z,24.72
2019-04-10T16:35:13.893Z,24.53
2019-04-10T16:40:11.646Z,30.45
2019-04-10T16:42:41.714Z,26.37
2019-04-10T16:45:10.735Z,25.02
2019-04-10T16:47:39.373Z,27.80
2019-04-10T16:50:09.166Z,26.50
2019-04-10T16:52:38.900Z,22.52
2019-04-10T16:55:08.594Z,26.12
2019-04-10T16:57:37.136Z,24.50
2019-04-10T17:00:07.027Z,27.45
2019-04-10T17:02:36.046Z,27.25
2019-04-10T17:05:08.103Z,32.28
2019-04-10T17:07:37.380Z,30.43
2019-04-10T17:10:17.655Z,27.45
2019-04-10T17:12:40.745Z,29.25
2019-04-10T17:15:10.290Z,30.30
2019-04-10T17:20:08.559Z,28.23
2019-04-10T17:25:07.839Z,32.10
2019-04-10T17:27:37.480Z,32.50
2019-04-10T17:30:08.102Z,29.00
2019-04-10T17:32:36.582Z,31.12
2019-04-10T17:35:07.862Z,30.77
2019-04-10T17:37:38.070Z,30.92
2019-04-10T17:40:08.902Z,30.35
2019-04-10T17:42:38.249Z,30.77
2019-04-10T17:45:08.161Z,30.68
2019-04-10T17:47:36.792Z,33.15
2019-04-10T17:50:07.756Z,30.43
2019-04-10T17:52:38.049Z,29.80
2019-04-10T17:55:07.793Z,28.45
2019-04-10T17:57:40.162Z,25.08
2019-04-10T18:00:11.135Z,25.68
2019-04-10T18:02:40.996Z,27.27
2019-04-10T18:05:10.604Z,30.00
2019-04-10T18:07:39.202Z,29.63
2019-04-10T18:10:08.539Z,29.95
2019-04-10T18:12:38.370Z,27.22
2019-04-10T18:15:08.164Z,27.70
2019-04-10T18:17:36.821Z,26.33
2019-04-10T18:20:06.390Z,29.48
2019-04-10T18:25:03.499Z,29.70
2019-04-10T18:27:32.339Z,30.80
2019-04-10T18:30:00.919Z,25.02
2019-04-10T18:32:29.684Z,27.93
2019-04-10T18:34:58.388Z,29.85
2019-04-10T18:37:28.571Z,27.40
2019-04-10T18:39:57.110Z,29.52
2019-04-10T18:42:26.605Z,26.07
2019-04-10T18:47:24.992Z,31.07
2019-04-10T18:49:54.000Z,29.23
2019-04-10T18:52:23.462Z,27.37
2019-04-10T18:54:52.146Z,26.68
2019-04-10T18:57:21.968Z,27.52
2019-04-10T19:00:10.135Z,25.12
2019-04-10T19:02:55.321Z,26.62
2019-04-10T19:05:28.128Z,31.50
2019-04-10T19:07:56.935Z,27.45
2019-04-10T19:10:26.405Z,27.77
2019-04-10T19:12:55.011Z,29.25
2019-04-10T19:15:24.426Z,30.57
2019-04-10T19:20:21.203Z,29.07
2019-04-10T19:22:50.668Z,25.62
2019-04-10T19:27:48.526Z,25.97
2019-04-10T19:30:39.363Z,25.82
2019-04-10T19:33:08.115Z,25.05
2019-04-10T19:35:37.273Z,24.75
2019-04-10T19:38:07.197Z,22.05
2019-04-10T19:40:38.334Z,23.87
2019-04-10T19:43:06.690Z,22.17
2019-04-10T19:45:36.238Z,31.35
2019-04-10T19:50:33.084Z,23.15
2019-04-10T19:53:02.614Z,27.02
2019-04-10T19:55:31.655Z,24.07
2019-04-10T19:58:00.350Z,24.72
2019-04-10T20:00:34.679Z,22.85
2019-04-10T20:03:03.648Z,27.02
2019-04-10T20:05:32.355Z,24.32
2019-04-10T20:08:01.665Z,23.50
2019-04-10T20:10:30.333Z,22.40
2019-04-10T20:12:59.374Z,23.47
2019-04-10T20:15:28.815Z,22.93
2019-04-10T20:17:57.545Z,26.60
2019-04-10T20:20:27.048Z,25.05
2019-04-10T20:25:24.350Z,23.30
2019-04-10T20:27:53.106Z,21.70
2019-04-10T20:30:23.698Z,24.50
2019-04-10T20:32:52.439Z,26.17
2019-04-10T20:35:22.323Z,25.25
2019-04-10T20:37:51.243Z,25.50
2019-04-10T20:40:20.750Z,27.02
2019-04-10T20:42:49.353Z,27.98
2019-04-10T20:45:18.007Z,26.77
2019-04-10T20:47:46.935Z,24.80
2019-04-10T20:50:15.640Z,26.97
2019-04-10T20:52:45.297Z,25.27
2019-04-10T20:55:14.220Z,25.50
2019-04-10T20:57:43.827Z,28.02
2019-04-10T21:02:42.651Z,27.42
2019-04-10T21:05:14.855Z,23.27
2019-04-10T21:07:43.819Z,24.55
2019-04-10T21:10:12.826Z,23.70
2019-04-10T21:12:41.934Z,23.90
2019-04-10T21:15:11.206Z,25.48
2019-04-10T21:17:39.812Z,25.65
2019-04-10T21:20:08.276Z,26.12
2019-04-10T21:22:36.769Z,27.42
2019-04-10T21:25:08.320Z,22.20
2019-04-10T21:27:37.660Z,24.80
2019-04-10T21:30:14.229Z,26.57
2019-04-10T21:32:56.878Z,27.17
2019-04-10T21:35:33.390Z,26.77
2019-04-10T21:38:02.597Z,25.52
2019-04-10T21:40:31.351Z,31.57
2019-04-10T21:42:59.845Z,23.12
2019-04-10T21:45:28.501Z,28.67
2019-04-10T21:47:57.838Z,27.87
2019-04-10T21:50:26.972Z,26.40
2019-04-10T21:52:55.656Z,26.23
2019-04-10T21:55:24.183Z,28.98
2019-04-10T21:57:52.768Z,25.30
2019-04-10T22:00:26.268Z,26.40
2019-04-10T22:02:56.122Z,22.77
2019-04-10T22:05:25.005Z,24.37
2019-04-10T22:08:03.075Z,22.20
2019-04-10T22:10:34.218Z,25.25
2019-04-10T22:13:03.742Z,21.85
2019-04-10T22:18:11.075Z,25.27
2019-04-10T22:20:39.645Z,23.73
2019-04-10T22:23:09.702Z,23.12
2019-04-10T22:25:39.437Z,23.55
2019-04-10T22:28:14.940Z,22.07
2019-04-10T22:30:43.791Z,23.27
2019-04-10T22:33:12.384Z,24.07
2019-04-10T22:35:42.017Z,22.25
2019-04-10T22:40:40.111Z,23.20
2019-04-10T22:43:08.812Z,20.68
2019-04-10T22:45:38.101Z,20.72
2019-04-10T22:48:06.856Z,20.48
2019-04-10T22:50:36.385Z,19.40
2019-04-10T22:55:33.827Z,21.50
2019-04-10T22:58:02.679Z,31.15
2019-04-10T23:00:32.682Z,22.07
2019-04-10T23:03:02.921Z,25.45
2019-04-10T23:05:32.313Z,23.70
2019-04-10T23:08:01.218Z,24.92
2019-04-10T23:10:30.110Z,21.67
2019-04-10T23:13:03.069Z,24.33
2019-04-10T23:15:29.268Z,22.60
2019-04-10T23:17:57.776Z,23.90
2019-04-10T23:20:26.381Z,22.30
2019-04-10T23:22:55.011Z,22.37
2019-04-10T23:25:24.627Z,22.15
2019-04-10T23:30:22.817Z,20.68
2019-04-10T23:32:51.465Z,22.52
2019-04-10T23:35:21.180Z,20.20
2019-04-10T23:37:50.994Z,20.25
2019-04-10T23:40:20.878Z,20.15
2019-04-10T23:43:01.315Z,19.73
2019-04-10T23:45:19.918Z,24.60
2019-04-10T23:47:48.772Z,20.37
2019-04-10T23:50:18.460Z,22.50
2019-04-10T23:52:47.880Z,21.25
2019-04-10T23:55:17.671Z,26.33
2019-04-10T23:57:46.477Z,18.95
